Time;durP1;ratioP1;P1;durP2;ratioP2;P2;SDS_P1;SDS_P2;PMS_P1;PMS_P2;Temp;Humidity;BMP_temperature;BMP_pressure;BME280_temperature;BME280_humidity;BME280_pressure;Samples;Min_cycle;Max_cycle;Signal;HPM_P1;HPM_P2
2023/06/27 00:01:04;;;;;;;8.02;7.20;;;16.90;99.90;;;;;;5050986;28;20025;-80
2023/06/27 00:03:36;;;;;;;7.32;6.53;;;17.00;99.90;;;;;;5049922;28;20386;-79
2023/06/27 00:06:03;;;;;;;9.68;7.07;;;17.10;99.90;;;;;;5051262;28;20013;-79
2023/06/27 00:08:30;;;;;;;11.05;6.85;;;17.20;99.90;;;;;;5049767;28;20040;-80
2023/06/27 00:10:56;;;;;;;9.05;6.35;;;17.30;99.90;;;;;;5050945;28;20024;-79
2023/06/27 00:13:22;;;;;;;9.07;6.70;;;17.30;99.90;;;;;;5049746;28;20033;-80
2023/06/27 00:15:52;;;;;;;8.70;6.45;;;17.30;99.90;;;;;;5050899;28;20021;-79
2023/06/27 00:18:21;;;;;;;9.63;7.60;;;17.40;99.90;;;;;;5049667;28;20473;-80
2023/06/27 00:20:50;;;;;;;10.38;7.45;;;17.40;99.90;;;;;;5049541;28;20526;-79
2023/06/27 00:23:33;;;;;;;11.05;8.23;;;17.40;99.90;;;;;;5050729;28;20041;-79
2023/06/27 00:25:59;;;;;;;9.07;7.45;;;17.40;99.90;;;;;;5050939;28;20047;-79
2023/06/27 00:28:25;;;;;;;9.82;7.68;;;17.40;99.90;;;;;;5050778;28;20036;-79
2023/06/27 00:30:50;;;;;;;9.25;7.35;;;17.50;99.90;;;;;;5049421;28;20017;-78
2023/06/27 00:33:16;;;;;;;10.00;8.18;;;17.40;99.90;;;;;;5049466;28;20108;-79
2023/06/27 00:35:41;;;;;;;12.02;8.77;;;17.50;99.90;;;;;;5050656;28;20025;-79
2023/06/27 00:38:07;;;;;;;13.57;9.20;;;17.40;99.90;;;;;;5048998;28;20445;-79
2023/06/27 00:40:33;;;;;;;9.27;8.20;;;17.30;99.90;;;;;;5048975;28;20479;-79
2023/06/27 00:42:58;;;;;;;13.45;8.95;;;17.20;99.90;;;;;;5049274;28;20538;-80
2023/06/27 00:45:24;;;;;;;13.68;10.10;;;17.20;99.90;;;;;;5049199;28;20028;-79
2023/06/27 00:47:51;;;;;;;12.80;10.00;;;17.20;99.90;;;;;;5050602;28;20048;-79
2023/06/27 00:50:19;;;;;;;14.75;11.02;;;17.20;99.90;;;;;;5050408;28;20013;-81
2023/06/27 00:52:45;;;;;;;13.55;10.70;;;17.10;99.90;;;;;;5049284;28;20023;-80
2023/06/27 00:55:11;;;;;;;12.00;9.25;;;17.10;99.90;;;;;;5050577;28;20021;-80
2023/06/27 00:57:37;;;;;;;11.45;9.68;;;17.20;99.90;;;;;;5049152;28;20044;-79
2023/06/27 01:00:05;;;;;;;10.68;9.55;;;17.20;99.90;;;;;;5049055;28;20021;-80
2023/06/27 01:02:30;;;;;;;10.75;8.95;;;17.20;99.90;;;;;;5049020;28;20055;-80
2023/06/27 01:04:56;;;;;;;13.75;9.90;;;17.20;99.90;;;;;;5050389;28;20029;-79
2023/06/27 01:07:36;;;;;;;13.23;10.35;;;17.20;99.90;;;;;;5050230;28;20055;-79
2023/06/27 01:10:15;;;;;;;14.93;9.90;;;17.20;99.90;;;;;;5050381;28;20021;-80
2023/06/27 01:12:57;;;;;;;13.55;9.35;;;17.10;99.90;;;;;;5049088;28;20112;-80
2023/06/27 01:15:23;;;;;;;13.90;10.20;;;17.00;99.90;;;;;;5050349;28;20021;-79
2023/06/27 01:17:50;;;;;;;12.98;10.07;;;17.00;99.90;;;;;;5048878;28;20124;-80
2023/06/27 01:20:17;;;;;;;11.75;9.80;;;17.00;99.90;;;;;;5049054;28;20184;-79
2023/06/27 01:22:47;;;;;;;14.80;10.57;;;16.90;99.90;;;;;;5050030;28;20063;-80
2023/06/27 01:25:12;;;;;;;11.55;10.23;;;17.00;99.90;;;;;;5048732;28;20029;-81
2023/06/27 01:27:39;;;;;;;13.18;9.80;;;17.00;99.90;;;;;;5048760;28;20097;-79
2023/06/27 01:30:06;;;;;;;13.93;10.75;;;16.90;99.90;;;;;;5048867;28;20021;-80
2023/06/27 01:32:49;;;;;;;15.95;11.05;;;16.90;99.90;;;;;;5048737;28;20077;-80
2023/06/27 01:35:21;;;;;;;16.80;12.70;;;16.90;99.90;;;;;;5048694;28;20029;-80
2023/06/27 01:37:55;;;;;;;18.83;13.00;;;16.90;99.90;;;;;;5050031;28;20355;-79
2023/06/27 01:40:21;;;;;;;17.05;12.82;;;16.80;99.90;;;;;;5048599;28;20102;-79
2023/06/27 01:42:52;;;;;;;16.95;12.13;;;16.80;99.90;;;;;;5049977;28;20040;-79
2023/06/27 01:45:18;;;;;;;14.27;10.85;;;16.80;99.90;;;;;;5048525;28;20025;-80
2023/06/27 01:47:44;;;;;;;14.55;12.20;;;16.80;99.90;;;;;;5049805;28;20033;-79
2023/06/27 01:50:11;;;;;;;18.27;12.68;;;16.70;99.90;;;;;;5047956;28;20025;-79
2023/06/27 01:52:37;;;;;;;18.65;13.18;;;16.70;99.90;;;;;;5052122;28;20366;-79
2023/06/27 01:55:03;;;;;;;15.95;12.52;;;16.70;99.90;;;;;;5052813;28;20029;-81
2023/06/27 01:57:29;;;;;;;15.40;12.10;;;16.70;99.90;;;;;;5053173;28;20041;-79
2023/06/27 01:59:55;;;;;;;14.15;11.00;;;16.70;99.90;;;;;;5051750;28;20042;-80
2023/06/27 02:02:20;;;;;;;13.55;11.20;;;16.80;99.90;;;;;;5052909;28;20037;-80
2023/06/27 02:04:46;;;;;;;12.52;10.63;;;16.80;99.90;;;;;;5053147;28;20021;-80
2023/06/27 02:07:12;;;;;;;13.40;11.07;;;16.90;99.90;;;;;;5052061;28;20033;-80
2023/06/27 02:09:37;;;;;;;12.57;10.07;;;16.80;99.90;;;;;;5051825;28;20017;-79
2023/06/27 02:12:04;;;;;;;14.40;10.23;;;16.80;99.90;;;;;;5051523;28;20518;-80
2023/06/27 02:14:30;;;;;;;18.73;10.98;;;16.70;99.90;;;;;;5051589;28;20505;-80
2023/06/27 02:16:56;;;;;;;14.38;10.40;;;16.60;99.90;;;;;;5052950;28;20021;-80
2023/06/27 02:19:22;;;;;;;12.82;9.88;;;16.60;99.90;;;;;;5051647;28;20065;-80
2023/06/27 02:21:48;;;;;;;13.48;10.55;;;16.60;99.90;;;;;;5052705;28;20036;-79
2023/06/27 02:24:14;;;;;;;15.25;11.45;;;16.60;99.90;;;;;;5052651;28;20025;-80
2023/06/27 02:26:40;;;;;;;15.77;12.48;;;16.50;99.90;;;;;;5051367;28;20017;-80
2023/06/27 02:29:06;;;;;;;18.10;13.35;;;16.50;99.90;;;;;;5051277;28;20019;-80
2023/06/27 02:31:31;;;;;;;18.27;14.40;;;16.50;99.90;;;;;;5051451;28;20017;-79
2023/06/27 02:33:57;;;;;;;19.35;15.63;;;16.50;99.90;;;;;;5051306;28;20112;-80
2023/06/27 02:36:25;;;;;;;18.85;16.13;;;16.50;99.90;;;;;;5051216;28;20390;-80
2023/06/27 02:38:54;;;;;;;23.98;17.63;;;16.50;99.90;;;;;;5051147;28;20040;-80
2023/06/27 02:41:21;;;;;;;26.08;17.75;;;16.40;99.90;;;;;;5052271;28;20402;-80
2023/06/27 02:43:46;;;;;;;22.33;16.95;;;16.40;99.90;;;;;;5052534;28;20052;-80
2023/06/27 02:46:12;;;;;;;22.38;16.70;;;16.40;99.90;;;;;;5051142;28;20064;-80
2023/06/27 02:48:37;;;;;;;21.67;16.77;;;16.40;99.90;;;;;;5051105;28;20463;-80
2023/06/27 02:51:03;;;;;;;26.85;18.65;;;16.40;99.90;;;;;;5050836;28;20112;-80
2023/06/27 02:53:29;;;;;;;24.63;19.45;;;16.30;99.90;;;;;;5051194;28;20025;-80
2023/06/27 02:55:57;;;;;;;25.42;20.05;;;16.40;99.90;;;;;;5050862;28;20048;-80
2023/06/27 02:58:23;;;;;;;26.58;19.40;;;16.40;99.90;;;;;;5052079;28;20025;-81
2023/06/27 03:00:49;;;;;;;26.08;20.48;;;16.40;99.90;;;;;;5050778;28;20028;-80
2023/06/27 03:03:14;;;;;;;27.50;21.35;;;16.40;99.90;;;;;;5050367;28;20048;-80
2023/06/27 03:05:40;;;;;;;29.02;21.23;;;16.40;99.90;;;;;;5052202;28;20025;-80
2023/06/27 03:08:05;;;;;;;28.60;22.40;;;16.40;99.90;;;;;;5050855;28;20048;-80
2023/06/27 03:10:31;;;;;;;29.15;20.67;;;16.40;99.90;;;;;;5050651;28;20025;-80
2023/06/27 03:12:57;;;;;;;27.83;21.70;;;16.40;99.90;;;;;;5050619;28;20025;-80
2023/06/27 03:15:22;;;;;;;27.10;21.65;;;16.40;99.90;;;;;;5050625;28;20098;-80
2023/06/27 03:17:48;;;;;;;25.08;19.67;;;16.40;99.90;;;;;;5051960;28;20073;-80
2023/06/27 03:20:13;;;;;;;27.17;23.00;;;16.40;99.90;;;;;;5051786;28;20525;-80
2023/06/27 03:22:39;;;;;;;28.98;22.13;;;16.40;99.90;;;;;;5051665;28;20041;-80
2023/06/27 03:25:09;;;;;;;27.08;21.33;;;16.40;99.90;;;;;;5051740;28;20385;-80
2023/06/27 03:27:35;;;;;;;27.40;21.25;;;16.40;99.90;;;;;;5050554;28;20029;-79
2023/06/27 03:30:01;;;;;;;30.73;22.23;;;16.40;99.90;;;;;;5050579;28;20021;-80
2023/06/27 03:32:27;;;;;;;30.38;24.52;;;16.40;99.90;;;;;;5051533;28;20089;-80
2023/06/27 03:34:52;;;;;;;24.23;21.30;;;16.40;99.90;;;;;;5050230;28;20060;-80
2023/06/27 03:37:19;;;;;;;32.25;23.02;;;16.50;99.90;;;;;;5051545;28;20036;-80
2023/06/27 03:39:45;;;;;;;26.15;22.08;;;16.50;99.90;;;;;;5050366;28;20428;-80
2023/06/27 03:42:11;;;;;;;28.52;22.13;;;16.50;99.90;;;;;;5051496;28;20041;-80
2023/06/27 03:44:36;;;;;;;27.98;21.35;;;16.50;99.90;;;;;;5050197;28;20021;-80
2023/06/27 03:47:03;;;;;;;29.90;24.02;;;16.50;99.90;;;;;;5050040;28;20078;-80
2023/06/27 03:49:28;;;;;;;28.23;21.17;;;16.50;99.90;;;;;;5050075;28;20482;-81
2023/06/27 03:51:54;;;;;;;24.63;20.20;;;16.50;99.90;;;;;;5050068;28;20028;-80
2023/06/27 03:54:20;;;;;;;30.92;22.75;;;16.50;99.90;;;;;;5050485;28;20025;-80
2023/06/27 03:56:46;;;;;;;27.30;21.10;;;16.50;99.90;;;;;;5051188;28;20393;-80
2023/06/27 03:59:11;;;;;;;25.30;19.70;;;16.50;99.90;;;;;;5051262;28;20029;-80
2023/06/27 04:01:40;;;;;;;26.17;21.70;;;16.50;99.90;;;;;;5049901;28;20374;-80
2023/06/27 04:04:05;;;;;;;26.92;21.63;;;16.50;99.90;;;;;;5049991;28;20095;-80
2023/06/27 04:06:31;;;;;;;29.30;22.52;;;16.50;99.90;;;;;;5051248;28;20021;-80
2023/06/27 04:08:57;;;;;;;24.10;21.08;;;16.60;99.90;;;;;;5049839;28;20120;-80
2023/06/27 04:11:22;;;;;;;22.02;19.27;;;16.60;99.90;;;;;;5050949;28;20029;-80
2023/06/27 04:13:48;;;;;;;27.60;20.95;;;16.50;99.90;;;;;;5050166;28;20402;-80
2023/06/27 04:16:14;;;;;;;21.67;18.95;;;16.60;99.90;;;;;;5049745;28;20025;-80
2023/06/27 04:18:40;;;;;;;20.95;18.52;;;16.50;99.90;;;;;;5051137;28;20025;-80
2023/06/27 04:21:06;;;;;;;22.10;17.95;;;16.60;99.90;;;;;;5051097;28;20108;-80
2023/06/27 04:23:32;;;;;;;21.25;17.88;;;16.60;99.90;;;;;;5050963;28;20445;-80
2023/06/27 04:26:03;;;;;;;25.40;19.52;;;16.60;99.90;;;;;;5049465;28;20021;-80
2023/06/27 04:28:30;;;;;;;28.83;22.13;;;16.60;99.90;;;;;;5050938;28;20021;-80
2023/06/27 04:30:56;;;;;;;27.80;21.98;;;16.60;99.90;;;;;;5050994;28;20032;-80
2023/06/27 04:33:22;;;;;;;32.60;22.30;;;16.60;99.90;;;;;;5050888;28;20021;-80
2023/06/27 04:35:48;;;;;;;29.65;21.73;;;16.60;99.90;;;;;;5050756;28;20482;-80
2023/06/27 04:38:14;;;;;;;25.77;19.17;;;16.60;99.90;;;;;;5049328;28;20169;-80
2023/06/27 04:40:41;;;;;;;19.70;15.13;;;16.70;99.90;;;;;;5050693;28;20398;-80
2023/06/27 04:43:07;;;;;;;17.67;15.68;;;16.70;99.90;;;;;;5049501;28;20482;-80
2023/06/27 04:45:34;;;;;;;15.23;13.43;;;16.70;99.90;;;;;;5049596;28;20069;-80
2023/06/27 04:47:59;;;;;;;17.13;14.80;;;16.70;99.90;;;;;;5050663;28;20040;-80
2023/06/27 04:50:25;;;;;;;19.42;15.57;;;16.80;99.90;;;;;;5050455;28;20026;-80
2023/06/27 04:52:51;;;;;;;16.35;14.13;;;16.80;99.90;;;;;;5049140;28;20069;-81
2023/06/27 04:55:16;;;;;;;15.38;13.82;;;16.80;99.90;;;;;;5051935;28;20029;-81
2023/06/27 04:57:42;;;;;;;17.55;14.40;;;16.90;99.90;;;;;;5049325;28;20119;-80
2023/06/27 05:00:11;;;;;;;14.73;13.20;;;16.80;99.90;;;;;;5050492;28;20022;-80
2023/06/27 05:02:37;;;;;;;16.65;12.93;;;16.90;99.90;;;;;;5050408;28;20561;-81
2023/06/27 05:05:04;;;;;;;16.08;12.52;;;16.90;99.90;;;;;;5049046;28;20053;-80
2023/06/27 05:07:30;;;;;;;14.88;13.27;;;16.90;99.90;;;;;;5049573;28;20032;-80
2023/06/27 05:09:56;;;;;;;14.98;13.25;;;16.90;99.90;;;;;;5049140;28;20017;-80
2023/06/27 05:12:21;;;;;;;14.55;12.43;;;16.90;99.90;;;;;;5050238;28;20025;-81
2023/06/27 05:14:47;;;;;;;13.95;12.10;;;16.90;99.90;;;;;;5048931;28;20101;-81
2023/06/27 05:17:13;;;;;;;15.32;11.55;;;17.00;99.90;;;;;;5049033;28;20078;-80
2023/06/27 05:19:38;;;;;;;12.75;9.20;;;16.90;99.90;;;;;;5050424;28;20052;-80
2023/06/27 05:22:04;;;;;;;9.98;8.10;;;16.90;99.90;;;;;;5050147;28;20112;-80
2023/06/27 05:24:29;;;;;;;10.45;7.55;;;16.90;99.90;;;;;;5050488;28;20033;-80
2023/06/27 05:26:55;;;;;;;9.20;8.10;;;17.00;99.90;;;;;;5053561;28;20053;-80
2023/06/27 05:29:21;;;;;;;9.05;7.75;;;17.00;99.90;;;;;;5052168;28;20017;-81
2023/06/27 05:31:46;;;;;;;8.77;7.43;;;16.90;99.90;;;;;;5053768;28;20021;-81
2023/06/27 05:34:12;;;;;;;10.20;7.30;;;17.00;99.90;;;;;;5053628;28;20089;-80
2023/06/27 05:36:38;;;;;;;10.45;7.55;;;17.00;99.90;;;;;;5053380;28;20462;-81
2023/06/27 05:39:03;;;;;;;7.47;6.25;;;17.00;99.90;;;;;;5053466;28;20032;-80
2023/06/27 05:41:30;;;;;;;9.82;6.93;;;17.00;99.90;;;;;;5051916;28;20490;-80
2023/06/27 05:43:56;;;;;;;9.93;6.63;;;17.00;99.90;;;;;;5052474;28;20025;-81
2023/06/27 05:46:21;;;;;;;9.52;6.60;;;17.10;99.90;;;;;;5053385;28;20042;-80
2023/06/27 05:48:47;;;;;;;9.48;6.55;;;17.00;99.90;;;;;;5053463;28;20033;-81
2023/06/27 05:51:13;;;;;;;10.43;6.28;;;17.00;99.90;;;;;;5053157;28;20108;-81
2023/06/27 05:53:42;;;;;;;7.57;5.45;;;17.00;99.90;;;;;;5051965;28;20017;-81
2023/06/27 05:56:08;;;;;;;7.53;5.78;;;16.90;99.90;;;;;;5052141;28;20048;-82
2023/06/27 05:58:37;;;;;;;7.60;5.78;;;16.90;99.90;;;;;;5051894;28;20073;-81
2023/06/27 06:01:03;;;;;;;8.30;5.57;;;16.80;99.90;;;;;;5053023;28;20122;-81
2023/06/27 06:03:28;;;;;;;7.38;5.63;;;16.70;99.90;;;;;;5052762;28;20037;-80
2023/06/27 06:05:54;;;;;;;7.82;5.60;;;16.70;99.90;;;;;;5052971;28;20029;-81
2023/06/27 06:08:20;;;;;;;8.20;5.63;;;16.70;99.90;;;;;;5053180;28;20029;-81
2023/06/27 06:10:49;;;;;;;8.23;4.88;;;16.60;99.90;;;;;;5051750;28;20497;-81
2023/06/27 06:13:15;;;;;;;8.43;5.32;;;16.60;99.90;;;;;;5051558;28;20378;-80
2023/06/27 06:15:41;;;;;;;6.05;5.45;;;16.60;99.90;;;;;;5052813;28;20025;-80
2023/06/27 06:18:06;;;;;;;6.63;5.68;;;16.80;99.90;;;;;;5052435;28;20497;-81
2023/06/27 06:20:32;;;;;;;8.82;5.63;;;16.90;99.90;;;;;;5051488;28;20036;-81
2023/06/27 06:22:59;;;;;;;9.93;6.13;;;17.00;99.90;;;;;;5051908;28;20033;-81
2023/06/27 06:25:25;;;;;;;8.75;5.70;;;17.00;99.90;;;;;;5051457;28;20112;-80
2023/06/27 06:27:51;;;;;;;8.98;5.07;;;16.90;99.90;;;;;;5051273;28;20021;-80
2023/06/27 06:30:17;;;;;;;6.53;5.03;;;17.00;99.90;;;;;;5052574;28;20021;-81
2023/06/27 06:32:42;;;;;;;7.00;5.40;;;17.00;99.90;;;;;;5051363;28;20079;-81
2023/06/27 06:35:08;;;;;;;10.02;5.72;;;16.90;99.90;;;;;;5052562;28;20035;-80
2023/06/27 06:37:34;;;;;;;7.47;5.70;;;17.10;99.90;;;;;;5050599;28;20032;-81
2023/06/27 06:39:59;;;;;;;8.45;5.40;;;17.00;99.90;;;;;;5052164;28;20475;-81
2023/06/27 06:42:25;;;;;;;13.73;5.22;;;17.10;99.90;;;;;;5051096;28;20482;-80
2023/06/27 06:44:50;;;;;;;11.82;5.72;;;17.20;99.90;;;;;;5051229;28;20363;-82
2023/06/27 06:47:16;;;;;;;10.30;5.38;;;17.20;99.90;;;;;;5052473;28;20496;-80
2023/06/27 06:49:41;;;;;;;7.55;5.63;;;17.20;99.90;;;;;;5051064;28;20040;-80
2023/06/27 06:52:07;;;;;;;11.40;5.60;;;17.20;99.90;;;;;;5051023;28;20474;-81
2023/06/27 06:54:33;;;;;;;10.18;5.55;;;17.10;99.90;;;;;;5051000;28;20017;-81
2023/06/27 06:56:58;;;;;;;7.80;5.80;;;17.00;99.90;;;;;;5051089;28;20025;-81
2023/06/27 06:59:24;;;;;;;8.52;5.53;;;17.10;99.90;;;;;;5050919;28;20496;-80
2023/06/27 07:01:49;;;;;;;9.40;5.57;;;17.10;99.90;;;;;;5052020;28;20367;-81
2023/06/27 07:04:15;;;;;;;9.30;6.60;;;17.10;99.90;;;;;;5050781;28;20040;-80
2023/06/27 07:06:41;;;;;;;11.95;6.88;;;17.10;99.90;;;;;;5050824;28;20029;-80
2023/06/27 07:09:06;;;;;;;7.18;5.45;;;17.20;99.90;;;;;;5051994;28;20060;-81
2023/06/27 07:11:32;;;;;;;11.50;6.40;;;17.20;99.90;;;;;;5051979;28;20036;-81
2023/06/27 07:13:59;;;;;;;7.20;5.75;;;17.20;99.90;;;;;;5051949;28;20059;-81
2023/06/27 07:16:25;;;;;;;6.53;5.90;;;17.20;99.90;;;;;;5050596;28;20021;-81
2023/06/27 07:18:51;;;;;;;10.65;6.60;;;17.20;99.90;;;;;;5050619;28;20024;-81
2023/06/27 07:21:17;;;;;;;10.00;5.90;;;17.20;99.90;;;;;;5051883;28;20028;-81
2023/06/27 07:23:42;;;;;;;6.80;6.10;;;17.20;99.90;;;;;;5051914;28;20037;-81
2023/06/27 07:26:08;;;;;;;7.22;5.88;;;17.10;99.90;;;;;;5050393;28;20032;-81
2023/06/27 07:28:33;;;;;;;9.20;6.25;;;17.20;99.90;;;;;;5051810;28;20058;-81
2023/06/27 07:30:59;;;;;;;10.85;6.05;;;17.10;99.90;;;;;;5051666;28;20458;-81
2023/06/27 07:33:25;;;;;;;7.68;5.90;;;17.10;99.90;;;;;;5050464;28;20053;-80
2023/06/27 07:35:50;;;;;;;9.88;6.07;;;17.20;99.90;;;;;;5051530;28;20032;-81
2023/06/27 07:38:16;;;;;;;12.55;6.20;;;17.30;99.90;;;;;;5051513;28;20033;-81
2023/06/27 07:40:43;;;;;;;6.90;5.90;;;17.50;99.90;;;;;;5049980;28;20041;-81
2023/06/27 07:43:08;;;;;;;13.20;6.07;;;17.70;99.90;;;;;;5050146;28;20546;-81
2023/06/27 07:45:34;;;;;;;8.80;6.50;;;17.90;99.90;;;;;;5050143;28;20108;-81
2023/06/27 07:47:59;;;;;;;9.73;6.28;;;18.00;99.90;;;;;;5050660;28;20024;-81
2023/06/27 07:50:25;;;;;;;7.25;6.03;;;18.10;99.90;;;;;;5049786;28;20542;-81
2023/06/27 07:52:50;;;;;;;6.85;5.65;;;18.00;99.90;;;;;;5050021;28;20481;-81
2023/06/27 07:55:16;;;;;;;6.78;5.50;;;17.80;99.90;;;;;;5051354;28;20382;-81
2023/06/27 07:57:42;;;;;;;6.47;5.85;;;18.00;99.90;;;;;;5051358;28;20023;-81
2023/06/27 08:00:08;;;;;;;10.05;6.22;;;17.90;99.90;;;;;;5050180;28;20025;-81
2023/06/27 08:02:33;;;;;;;11.25;7.15;;;17.80;99.90;;;;;;5049831;28;20033;-82
2023/06/27 08:04:59;;;;;;;8.32;6.55;;;17.70;99.90;;;;;;5049818;28;20027;-81
2023/06/27 08:07:24;;;;;;;9.77;7.13;;;17.70;99.90;;;;;;5049688;28;20533;-81
2023/06/27 08:09:50;;;;;;;12.93;7.13;;;17.60;99.90;;;;;;5051178;28;20021;-81
2023/06/27 08:12:16;;;;;;;9.98;7.47;;;17.50;99.90;;;;;;5050067;28;20444;-81
2023/06/27 08:14:43;;;;;;;8.10;7.07;;;17.40;99.90;;;;;;5049841;28;20077;-81
2023/06/27 08:17:09;;;;;;;10.15;7.30;;;17.30;99.90;;;;;;5051000;28;20017;-81
2023/06/27 08:19:34;;;;;;;8.45;7.50;;;17.40;99.90;;;;;;5050847;28;20073;-81
2023/06/27 08:22:00;;;;;;;10.88;6.97;;;17.30;99.90;;;;;;5049526;28;20032;-81
2023/06/27 08:24:26;;;;;;;7.88;6.18;;;17.20;99.90;;;;;;5050932;28;20095;-81
2023/06/27 08:26:54;;;;;;;10.43;6.38;;;17.00;99.90;;;;;;5050926;28;20065;-80
2023/06/27 08:29:20;;;;;;;7.28;6.57;;;16.90;99.90;;;;;;5049762;28;20033;-82
2023/06/27 08:31:48;;;;;;;12.70;7.72;;;16.70;99.90;;;;;;5050596;28;20032;-80
2023/06/27 08:34:13;;;;;;;13.05;7.45;;;16.70;99.90;;;;;;5050706;28;20021;-80
2023/06/27 08:36:39;;;;;;;8.07;7.28;;;16.60;99.90;;;;;;5050913;28;20367;-80
2023/06/27 08:39:05;;;;;;;10.85;8.23;;;16.50;99.90;;;;;;5049350;28;20025;-80
2023/06/27 08:41:31;;;;;;;10.60;7.65;;;16.60;99.90;;;;;;5049053;28;20048;-80
2023/06/27 08:43:56;;;;;;;8.65;7.80;;;16.60;99.90;;;;;;5050872;28;20100;-80
2023/06/27 08:46:23;;;;;;;8.18;7.20;;;16.70;99.90;;;;;;5050499;28;20029;-80
2023/06/27 08:48:52;;;;;;;9.65;8.50;;;16.80;99.90;;;;;;5050473;28;20092;-80
2023/06/27 08:51:21;;;;;;;10.18;7.85;;;17.10;99.90;;;;;;5050634;28;20013;-80
2023/06/27 08:53:49;;;;;;;8.55;6.78;;;17.20;99.90;;;;;;5050542;28;20043;-80
2023/06/27 08:56:17;;;;;;;10.02;7.22;;;17.20;99.90;;;;;;5050432;28;20017;-80
2023/06/27 08:58:52;;;;;;;8.43;6.75;;;17.40;99.90;;;;;;5050314;28;20017;-80
2023/06/27 09:01:20;;;;;;;11.50;7.05;;;17.60;99.90;;;;;;5052269;28;20044;-81
2023/06/27 09:03:46;;;;;;;7.88;7.03;;;17.70;99.90;;;;;;5052928;28;20385;-80
2023/06/27 09:06:14;;;;;;;8.65;6.80;;;17.70;99.90;;;;;;5052643;28;20021;-80
2023/06/27 09:08:41;;;;;;;9.20;6.65;;;17.80;99.90;;;;;;5052681;28;20060;-81
2023/06/27 09:11:09;;;;;;;7.10;6.07;;;18.00;99.90;;;;;;5052542;28;20494;-81
2023/06/27 09:13:39;;;;;;;8.95;6.25;;;18.30;99.90;;;;;;5052541;28;20392;-80
2023/06/27 09:16:07;;;;;;;7.30;5.85;;;18.50;99.90;;;;;;5052486;28;20028;-81
2023/06/27 09:18:35;;;;;;;6.05;5.20;;;18.50;99.90;;;;;;5051512;28;20025;-80
2023/06/27 09:21:01;;;;;;;6.10;4.95;;;18.40;97.30;;;;;;5052365;28;20116;-81
2023/06/27 09:23:29;;;;;;;6.50;4.53;;;18.30;99.60;;;;;;5053568;28;20494;-81
2023/06/27 09:26:09;;;;;;;6.93;5.05;;;18.50;95.10;;;;;;5052419;28;20032;-81
2023/06/27 09:28:48;;;;;;;5.97;4.78;;;18.70;92.70;;;;;;5053808;28;20032;-80
2023/06/27 09:31:17;;;;;;;6.30;4.40;;;18.90;91.80;;;;;;5052570;28;20095;-80
2023/06/27 09:33:43;;;;;;;6.30;4.80;;;19.10;88.80;;;;;;5053243;28;20037;-81
2023/06/27 09:36:09;;;;;;;7.75;4.80;;;19.10;83.50;;;;;;5053484;28;20025;-81
2023/06/27 09:38:35;;;;;;;6.50;4.88;;;19.20;88.40;;;;;;5052398;28;20029;-81
2023/06/27 09:41:05;;;;;;;7.88;4.88;;;19.20;85.50;;;;;;5051876;28;20048;-81
2023/06/27 09:43:37;;;;;;;6.50;4.68;;;19.00;85.20;;;;;;5053351;28;20040;-81
2023/06/27 09:46:04;;;;;;;5.57;4.05;;;18.80;85.00;;;;;;5053466;28;20025;-81
2023/06/27 09:48:30;;;;;;;5.60;3.78;;;18.60;80.70;;;;;;5053054;28;20112;-81
2023/06/27 09:51:03;;;;;;;4.25;3.85;;;18.50;81.60;;;;;;5052210;28;20550;-81
2023/06/27 09:53:30;;;;;;;7.10;4.18;;;18.50;82.50;;;;;;5051976;28;20022;-81
2023/06/27 09:56:00;;;;;;;4.88;3.40;;;18.60;82.80;;;;;;5051851;28;20021;-81
2023/06/27 09:58:29;;;;;;;3.83;2.88;;;18.70;82.30;;;;;;5051867;28;20024;-81
2023/06/27 10:01:03;;;;;;;5.28;3.28;;;18.90;80.10;;;;;;5053049;28;20032;-81
2023/06/27 10:03:29;;;;;;;4.35;3.20;;;19.20;79.60;;;;;;5051775;28;20033;-80
2023/06/27 10:05:55;;;;;;;5.05;3.10;;;19.20;74.30;;;;;;5051989;28;20355;-81
2023/06/27 10:08:21;;;;;;;4.55;2.83;;;19.10;73.70;;;;;;5051707;28;20023;-81
2023/06/27 10:10:46;;;;;;;5.18;2.85;;;19.20;73.70;;;;;;5052536;28;20509;-81
2023/06/27 10:13:12;;;;;;;5.07;2.25;;;19.10;73.70;;;;;;5050987;28;20489;-80
2023/06/27 10:15:38;;;;;;;5.13;2.22;;;19.20;68.90;;;;;;5042780;28;20040;-80
2023/06/27 10:18:04;;;;;;;6.50;2.10;;;19.40;67.00;;;;;;5031803;28;20482;-81
2023/06/27 10:20:29;;;;;;;6.13;2.35;;;19.50;64.20;;;;;;5032724;28;20034;-81
2023/06/27 10:22:57;;;;;;;4.70;2.20;;;19.60;65.10;;;;;;5032715;28;20037;-81
2023/06/27 10:25:23;;;;;;;4.28;2.55;;;19.40;65.30;;;;;;5032941;28;20558;-81
2023/06/27 10:27:49;;;;;;;5.50;2.78;;;19.30;66.90;;;;;;5031387;28;20024;-81
2023/06/27 10:30:25;;;;;;;4.40;2.60;;;19.30;67.70;;;;;;5031367;28;20029;-81
2023/06/27 10:32:52;;;;;;;3.25;2.28;;;19.30;67.60;;;;;;5032834;28;20022;-80
2023/06/27 10:35:25;;;;;;;3.55;2.78;;;19.50;67.90;;;;;;5032696;28;20049;-81
2023/06/27 10:38:06;;;;;;;5.88;2.63;;;19.90;69.80;;;;;;5032648;28;20386;-80
2023/06/27 10:40:58;;;;;;;3.30;2.55;;;20.20;69.20;;;;;;5031148;28;20050;-81
2023/06/27 10:43:36;;;;;;;7.03;2.70;;;20.50;69.50;;;;;;5032576;28;20117;-81
2023/06/27 10:46:06;;;;;;;2.70;2.38;;;20.10;66.60;;;;;;5031131;28;20032;-81
2023/06/27 10:49:03;;;;;;;5.07;2.58;;;19.80;67.30;;;;;;5031680;28;20028;-80
2023/06/27 10:51:41;;;;;;;5.18;3.40;;;19.90;68.30;;;;;;5026883;28;20048;-81
2023/06/27 10:54:11;;;;;;;4.53;2.80;;;20.00;68.20;;;;;;5031236;28;20109;-82
2023/06/27 10:56:39;;;;;;;8.02;3.42;;;20.20;68.90;;;;;;5032319;28;20051;-81
2023/06/27 10:59:08;;;;;;;3.70;2.33;;;20.10;68.10;;;;;;5031044;28;20108;-81
2023/06/27 11:01:34;;;;;;;3.65;2.90;;;20.10;68.60;;;;;;5032232;28;20026;-81
2023/06/27 11:04:15;;;;;;;4.18;2.35;;;19.60;65.90;;;;;;5030950;28;20367;-81
2023/06/27 11:06:42;;;;;;;3.60;3.05;;;19.60;68.40;;;;;;5032268;28;20105;-81
2023/06/27 11:09:17;;;;;;;7.53;2.80;;;19.50;69.60;;;;;;5030912;28;20022;-81
2023/06/27 11:11:55;;;;;;;4.15;2.40;;;19.60;67.20;;;;;;5047347;28;20078;-80
2023/06/27 11:14:37;;;;;;;4.05;2.80;;;19.60;66.80;;;;;;5052010;28;20443;-80
2023/06/27 11:17:03;;;;;;;4.38;2.22;;;19.60;66.50;;;;;;5050957;28;20037;-80
2023/06/27 11:19:31;;;;;;;7.80;2.67;;;19.90;67.20;;;;;;5050636;28;20025;-80
2023/06/27 11:21:57;;;;;;;3.42;3.03;;;19.90;65.40;;;;;;5050557;28;20029;-81
2023/06/27 11:24:24;;;;;;;4.22;3.30;;;19.90;66.80;;;;;;5051648;28;20165;-81
2023/06/27 11:26:50;;;;;;;5.15;2.92;;;20.10;68.00;;;;;;5051766;28;20025;-81
2023/06/27 11:29:16;;;;;;;4.13;2.70;;;20.10;67.30;;;;;;5050431;28;20029;-80
2023/06/27 11:31:42;;;;;;;3.13;2.83;;;20.20;66.30;;;;;;5051777;28;20061;-81
2023/06/27 11:34:08;;;;;;;8.18;2.90;;;20.20;65.90;;;;;;5050423;28;20033;-81
2023/06/27 11:36:36;;;;;;;2.90;2.70;;;20.40;66.90;;;;;;5050356;28;20017;-81
2023/06/27 11:39:03;;;;;;;4.60;2.58;;;20.20;66.60;;;;;;5050292;28;20500;-80
2023/06/27 11:41:28;;;;;;;4.45;2.72;;;20.40;67.80;;;;;;5051476;28;20116;-81
2023/06/27 11:43:55;;;;;;;4.63;2.40;;;20.80;65.40;;;;;;5050307;28;20025;-81
2023/06/27 11:46:21;;;;;;;6.85;2.95;;;21.00;63.70;;;;;;5050186;28;20378;-81
2023/06/27 11:48:47;;;;;;;6.38;2.90;;;20.90;63.80;;;;;;5051411;28;20069;-81
2023/06/27 11:51:13;;;;;;;5.82;2.97;;;20.70;64.70;;;;;;5051586;28;20022;-81
2023/06/27 11:53:47;;;;;;;3.45;2.97;;;20.50;64.20;;;;;;5050121;28;20474;-81
2023/06/27 11:56:13;;;;;;;4.60;2.35;;;20.20;62.20;;;;;;5050074;28;20032;-80
2023/06/27 11:58:38;;;;;;;3.22;2.45;;;20.40;62.30;;;;;;5051272;28;20029;-80
2023/06/27 12:01:14;;;;;;;7.10;2.72;;;20.70;63.30;;;;;;5049786;28;20028;-80
2023/06/27 12:03:46;;;;;;;4.25;2.83;;;20.40;61.30;;;;;;5050032;28;20552;-81
2023/06/27 12:06:26;;;;;;;3.38;2.20;;;20.40;61.70;;;;;;5049893;28;20017;-80
2023/06/27 12:08:52;;;;;;;4.22;3.17;;;20.30;62.40;;;;;;5049834;28;20017;-81
2023/06/27 12:11:25;;;;;;;2.97;2.30;;;20.20;63.70;;;;;;5051127;28;20043;-81
2023/06/27 12:13:51;;;;;;;4.93;2.70;;;20.50;66.10;;;;;;5049817;28;20017;-81
2023/06/27 12:16:29;;;;;;;4.35;2.80;;;20.40;64.60;;;;;;5051156;28;20025;-81
2023/06/27 12:19:05;;;;;;;3.58;2.20;;;20.60;64.20;;;;;;5049660;28;20021;-81
2023/06/27 12:21:31;;;;;;;2.10;1.83;;;20.80;61.40;;;;;;5049916;28;20112;-81
2023/06/27 12:23:57;;;;;;;4.63;2.03;;;20.90;58.90;;;;;;5050910;28;20040;-81
2023/06/27 12:26:23;;;;;;;3.67;1.85;;;21.00;57.90;;;;;;5050996;28;20470;-81
2023/06/27 12:29:02;;;;;;;3.10;1.83;;;20.90;58.80;;;;;;5049670;28;20031;-81
2023/06/27 12:31:29;;;;;;;2.47;1.70;;;21.00;59.30;;;;;;5050837;28;20381;-81
2023/06/27 12:33:55;;;;;;;5.70;2.80;;;20.90;58.80;;;;;;5050560;28;20500;-82
2023/06/27 12:36:22;;;;;;;13.95;2.90;;;20.80;60.20;;;;;;5049060;28;20026;-81
2023/06/27 12:38:49;;;;;;;4.40;2.20;;;20.00;59.70;;;;;;5049363;28;20057;-81